Time;durP1;ratioP1;P1;durP2;ratioP2;P2;SDS_P1;SDS_P2;PMS_P1;PMS_P2;Temp;Humidity;BMP_temperature;BMP_pressure;BME280_temperature;BME280_humidity;BME280_pressure;Samples;Min_cycle;Max_cycle;Signal;HPM_P1;HPM_P2
2022/09/19 00:01:51;;;;;;;0.50;0.10;;;8.00;99.90;;;;;;5094015;28;20024;-82
2022/09/19 00:04:19;;;;;;;0.45;0.17;;;8.00;99.90;;;;;;5094814;28;20032;-83
2022/09/19 00:06:47;;;;;;;2.50;0.30;;;8.00;99.90;;;;;;5094287;28;20024;-83
2022/09/19 00:09:15;;;;;;;0.55;0.30;;;7.90;99.90;;;;;;5095962;28;20062;-83
2022/09/19 00:11:44;;;;;;;0.88;0.30;;;7.80;99.90;;;;;;5095914;28;20035;-75
2022/09/19 00:14:13;;;;;;;1.08;0.28;;;7.80;99.90;;;;;;5095439;28;20027;-82
2022/09/19 00:16:41;;;;;;;0.65;0.10;;;7.80;99.90;;;;;;5096717;28;20096;-74
2022/09/19 00:19:10;;;;;;;0.70;0.10;;;7.80;99.90;;;;;;5100094;28;20131;-82
2022/09/19 00:21:41;;;;;;;0.35;0.20;;;7.80;99.90;;;;;;5071047;28;20492;-83
2022/09/19 00:26:55;;;;;;;0.65;0.10;;;7.70;99.90;;;;;;5081155;28;20043;-82
2022/09/19 00:29:22;;;;;;;1.10;0.17;;;7.60;99.90;;;;;;5086380;28;20028;-82
2022/09/19 00:31:49;;;;;;;1.42;0.50;;;7.60;99.90;;;;;;5088083;28;20083;-81
2022/09/19 00:34:17;;;;;;;0.47;0.20;;;7.50;99.90;;;;;;5095827;28;20020;-82
2022/09/19 00:36:43;;;;;;;0.13;0.10;;;7.50;99.90;;;;;;5093810;28;20155;-75
2022/09/19 00:39:12;;;;;;;0.10;0.10;;;;;;;;;;5085530;28;20028;-81
2022/09/19 00:41:42;;;;;;;0.08;0.08;;;;;;;;;;5081268;28;20008;-82
2022/09/19 00:44:26;;;;;;;1.73;0.15;;;;;;;;;;5093496;28;20452;-81
2022/09/19 00:47:05;;;;;;;0.63;0.00;;;;;;;;;;5076102;28;20055;-80
2022/09/19 00:49:33;;;;;;;0.10;0.10;;;;;;;;;;5073404;28;20027;-81
2022/09/19 00:52:06;;;;;;;0.50;0.10;;;;;;;;;;5071176;28;20375;-81
2022/09/19 00:54:40;;;;;;;1.95;0.10;;;7.30;99.90;;;;;;5072923;28;20028;-81
2022/09/19 00:57:08;;;;;;;0.55;0.10;;;7.30;99.90;;;;;;5072492;28;20066;-81
2022/09/19 00:59:36;;;;;;;0.10;0.10;;;7.40;99.90;;;;;;5062873;28;20064;-81
2022/09/19 01:02:04;;;;;;;0.75;0.20;;;7.50;99.90;;;;;;5072574;28;20056;-81
2022/09/19 01:04:34;;;;;;;0.10;0.10;;;7.50;99.90;;;;;;5072792;28;20082;-81
2022/09/19 01:07:18;;;;;;;0.10;0.10;;;7.50;99.90;;;;;;5051842;28;20113;-81
2022/09/19 01:09:56;;;;;;;1.38;0.10;;;7.40;99.90;;;;;;5052196;28;20355;-75
2022/09/19 01:12:48;;;;;;;0.30;0.20;;;7.40;99.90;;;;;;5044699;28;20445;-82
2022/09/19 01:15:32;;;;;;;0.20;0.10;;;7.40;99.90;;;;;;5052273;28;20036;-74
2022/09/19 01:18:01;;;;;;;0.08;0.08;;;7.30;99.90;;;;;;5051737;28;20120;-81
2022/09/19 01:20:45;;;;;;;0.60;0.10;;;7.30;99.90;;;;;;5052990;28;20358;-82
2022/09/19 01:23:41;;;;;;;0.10;0.10;;;7.30;99.90;;;;;;5052591;28;20029;-82
2022/09/19 01:27:05;;;;;;;1.50;0.20;;;7.20;99.90;;;;;;5051878;28;20091;-80
2022/09/19 01:29:42;;;;;;;0.77;0.20;;;7.20;99.90;;;;;;5029506;28;20037;-83
2022/09/19 01:32:12;;;;;;;0.43;0.20;;;;;;;;;;5028317;28;20068;-82
2022/09/19 01:34:43;;;;;;;2.15;0.50;;;7.10;99.90;;;;;;5042029;28;20549;-82
2022/09/19 01:37:19;;;;;;;0.10;0.10;;;7.10;99.90;;;;;;5069274;28;20040;-81
2022/09/19 01:39:49;;;;;;;0.30;0.20;;;7.10;99.90;;;;;;5071149;28;20025;-75
2022/09/19 01:42:20;;;;;;;1.23;0.10;;;;;;;;;;5072352;28;20020;-82
2022/09/19 01:44:45;;;;;;;0.20;0.15;;;7.00;99.90;;;;;;5071519;28;20074;-74
2022/09/19 01:47:29;;;;;;;0.10;0.10;;;7.00;99.90;;;;;;5070117;28;20078;-80
2022/09/19 01:50:51;;;;;;;1.63;0.28;;;7.00;99.90;;;;;;5051959;28;20044;-81
2022/09/19 01:53:47;;;;;;;0.30;0.30;;;7.00;99.90;;;;;;5027927;28;20044;-82
2022/09/19 01:56:48;;;;;;;1.50;0.88;;;6.90;99.90;;;;;;5052249;28;20037;-83
2022/09/19 01:59:46;;;;;;;0.85;0.60;;;7.00;99.90;;;;;;5052020;28;20090;-83
2022/09/19 02:02:22;;;;;;;2.42;0.20;;;7.00;99.90;;;;;;5052364;28;20474;-82
2022/09/19 02:04:58;;;;;;;1.17;0.17;;;6.90;99.90;;;;;;5055193;28;20116;-79
2022/09/19 02:07:55;;;;;;;2.58;0.30;;;7.00;99.90;;;;;;5071961;28;20036;-83
2022/09/19 02:10:30;;;;;;;0.35;0.30;;;6.90;99.90;;;;;;5034485;28;20040;-83
2022/09/19 02:12:58;;;;;;;0.25;0.20;;;6.90;99.90;;;;;;5053480;28;20427;-83
2022/09/19 02:15:28;;;;;;;0.13;0.13;;;6.90;99.90;;;;;;5071985;28;20107;-82
2022/09/19 02:18:08;;;;;;;0.70;0.45;;;7.00;99.90;;;;;;5069223;28;20029;-82
2022/09/19 02:20:37;;;;;;;0.30;0.10;;;7.10;99.90;;;;;;5068410;28;20040;-81
2022/09/19 02:23:25;;;;;;;3.15;0.50;;;7.00;99.90;;;;;;5070667;28;20052;-81
2022/09/19 02:25:53;;;;;;;2.47;0.85;;;7.10;99.90;;;;;;5070427;28;20040;-82
2022/09/19 02:28:25;;;;;;;0.43;0.20;;;7.10;99.90;;;;;;5071457;28;20028;-82
2022/09/19 02:30:51;;;;;;;4.50;0.40;;;7.10;99.90;;;;;;5071379;28;20116;-81
2022/09/19 02:33:17;;;;;;;3.60;0.40;;;7.10;99.90;;;;;;5071703;28;20127;-80
2022/09/19 02:35:50;;;;;;;1.75;0.40;;;7.20;99.90;;;;;;5070506;28;20025;-81
2022/09/19 02:38:36;;;;;;;3.25;0.60;;;7.20;99.90;;;;;;5061393;28;20412;-82
2022/09/19 02:41:06;;;;;;;1.85;0.50;;;7.30;99.90;;;;;;5069381;28;20028;-83
2022/09/19 02:43:46;;;;;;;1.63;0.32;;;7.30;99.90;;;;;;5065717;28;20025;-81
2022/09/19 02:46:47;;;;;;;3.33;0.40;;;7.30;99.90;;;;;;5070284;28;20075;-81
2022/09/19 02:49:19;;;;;;;5.00;0.40;;;7.30;99.90;;;;;;5067350;28;20036;-83
2022/09/19 02:51:54;;;;;;;1.00;0.20;;;7.40;99.90;;;;;;5074962;28;20055;-82
2022/09/19 02:54:26;;;;;;;5.45;0.50;;;7.50;99.90;;;;;;5075315;28;20024;-82
2022/09/19 02:56:54;;;;;;;1.85;0.35;;;7.50;99.90;;;;;;5072739;28;20043;-82
2022/09/19 02:59:25;;;;;;;2.45;0.50;;;7.60;99.90;;;;;;5075054;28;20035;-81
2022/09/19 03:01:57;;;;;;;4.60;0.70;;;7.50;99.90;;;;;;5074216;28;20029;-81
2022/09/19 03:04:29;;;;;;;4.45;0.80;;;7.60;99.90;;;;;;5075419;28;20028;-82
2022/09/19 03:07:14;;;;;;;3.45;0.60;;;7.60;99.90;;;;;;5074355;28;20033;-81
2022/09/19 03:09:42;;;;;;;2.55;0.50;;;7.60;99.90;;;;;;5062992;28;20083;-81
2022/09/19 03:12:18;;;;;;;2.67;0.80;;;7.60;99.90;;;;;;5054538;28;20481;-82
2022/09/19 03:14:46;;;;;;;2.13;0.43;;;7.60;99.90;;;;;;5037284;28;20021;-83
2022/09/19 03:17:16;;;;;;;3.80;0.60;;;7.60;99.90;;;;;;5054566;28;20174;-80
2022/09/19 03:19:47;;;;;;;4.32;0.52;;;7.60;99.90;;;;;;5071821;28;20109;-82
2022/09/19 03:22:13;;;;;;;2.55;0.45;;;7.60;99.90;;;;;;5059656;28;20123;-80
2022/09/19 03:24:39;;;;;;;2.05;0.32;;;7.60;99.90;;;;;;5071828;28;20155;-82
2022/09/19 03:27:05;;;;;;;2.58;0.50;;;7.70;99.90;;;;;;5072124;28;20515;-82
2022/09/19 03:29:31;;;;;;;5.47;0.60;;;7.70;99.90;;;;;;5074746;28;20107;-82
2022/09/19 03:31:56;;;;;;;2.33;0.70;;;7.70;99.90;;;;;;5073227;28;20037;-82
2022/09/19 03:34:22;;;;;;;2.40;0.50;;;7.70;99.90;;;;;;5074957;28;20095;-82
2022/09/19 03:36:48;;;;;;;9.32;1.00;;;7.70;99.90;;;;;;5074270;28;20082;-74
2022/09/19 03:39:14;;;;;;;6.43;0.90;;;7.80;99.90;;;;;;5073136;28;20094;-81
2022/09/19 03:41:40;;;;;;;1.50;0.43;;;7.80;99.90;;;;;;5069043;28;20463;-80
2022/09/19 03:44:07;;;;;;;5.40;0.82;;;7.80;99.90;;;;;;5073419;28;20025;-83
2022/09/19 03:46:33;;;;;;;2.58;0.52;;;7.80;99.90;;;;;;5087337;28;20048;-83
2022/09/19 03:49:00;;;;;;;3.50;0.50;;;7.70;99.90;;;;;;5092371;28;20099;-83
2022/09/19 03:51:27;;;;;;;3.60;0.90;;;7.70;99.90;;;;;;5093658;28;20032;-81
2022/09/19 03:53:53;;;;;;;6.57;0.77;;;7.70;99.90;;;;;;5092037;28;20032;-74
2022/09/19 03:56:18;;;;;;;1.60;0.65;;;7.60;99.90;;;;;;5084845;28;20033;-80
2022/09/19 03:58:45;;;;;;;4.05;0.75;;;7.70;99.90;;;;;;5085022;28;20437;-82
2022/09/19 04:01:15;;;;;;;3.13;0.70;;;7.60;99.90;;;;;;5091689;28;20024;-81
2022/09/19 04:03:42;;;;;;;2.00;0.50;;;7.70;99.90;;;;;;5092785;28;20035;-81
2022/09/19 04:06:09;;;;;;;2.70;0.60;;;7.70;99.90;;;;;;5093037;28;20028;-82
2022/09/19 04:08:35;;;;;;;3.88;0.50;;;7.70;99.90;;;;;;5091440;28;20028;-82
2022/09/19 04:11:00;;;;;;;3.95;0.77;;;7.70;99.90;;;;;;5090225;28;20036;-83
2022/09/19 04:13:28;;;;;;;2.00;0.65;;;7.80;99.90;;;;;;5091243;28;20031;-83
2022/09/19 04:15:54;;;;;;;10.65;1.10;;;7.70;99.90;;;;;;5093144;28;20032;-75
2022/09/19 04:18:20;;;;;;;6.10;0.70;;;7.80;99.90;;;;;;5093737;28;20512;-82
2022/09/19 04:20:47;;;;;;;2.95;1.48;;;7.80;99.90;;;;;;5094225;28;20457;-83
2022/09/19 04:23:16;;;;;;;2.40;0.60;;;7.80;99.90;;;;;;5093166;28;20024;-83
2022/09/19 04:25:42;;;;;;;5.10;0.80;;;7.80;99.90;;;;;;5093623;28;20385;-83
2022/09/19 04:28:11;;;;;;;2.22;0.50;;;7.80;99.90;;;;;;5092421;28;20032;-79
2022/09/19 04:30:40;;;;;;;7.45;1.00;;;7.90;99.90;;;;;;5077568;28;20032;-82
2022/09/19 04:33:10;;;;;;;5.25;0.93;;;7.90;99.90;;;;;;5081544;28;20448;-75
2022/09/19 04:35:36;;;;;;;6.53;0.93;;;8.00;99.90;;;;;;5082049;28;20134;-80
2022/09/19 04:38:08;;;;;;;5.28;0.90;;;8.10;99.90;;;;;;5079837;28;20056;-83
2022/09/19 04:40:41;;;;;;;4.25;1.00;;;8.20;99.90;;;;;;5080676;28;20024;-88
2022/09/19 04:43:09;;;;;;;7.40;0.77;;;8.20;99.90;;;;;;5092673;28;20090;-87
2022/09/19 04:45:36;;;;;;;10.82;1.23;;;8.20;99.90;;;;;;5094754;28;20040;-77
2022/09/19 04:48:05;;;;;;;5.13;0.93;;;8.30;99.90;;;;;;5101497;28;20031;-75
2022/09/19 04:50:34;;;;;;;5.75;0.57;;;8.30;99.90;;;;;;5101375;28;20055;-75
2022/09/19 04:53:00;;;;;;;4.35;0.82;;;8.40;99.90;;;;;;5102352;28;20024;-75
2022/09/19 04:55:27;;;;;;;8.23;1.00;;;8.40;99.90;;;;;;5102510;28;20115;-75
2022/09/19 04:57:54;;;;;;;6.88;1.20;;;8.30;99.90;;;;;;5100515;28;20020;-73
2022/09/19 05:00:36;;;;;;;3.92;0.95;;;8.30;99.90;;;;;;5095652;28;20044;-75
2022/09/19 05:03:07;;;;;;;4.85;1.10;;;8.40;99.90;;;;;;5100572;28;20024;-83
2022/09/19 05:05:34;;;;;;;4.88;1.38;;;8.40;99.90;;;;;;5104011;28;20038;-84
2022/09/19 05:07:59;;;;;;;4.10;0.90;;;8.40;99.90;;;;;;5101759;28;20039;-86
2022/09/19 05:10:25;;;;;;;6.95;1.20;;;8.40;99.90;;;;;;5100534;28;20028;-83
2022/09/19 05:12:51;;;;;;;5.82;1.10;;;8.40;99.90;;;;;;5092600;28;20024;-78
2022/09/19 05:15:17;;;;;;;8.82;1.17;;;8.40;99.90;;;;;;5092472;28;20122;-84
2022/09/19 05:17:43;;;;;;;6.95;1.50;;;8.50;99.90;;;;;;5089459;28;20035;-83
2022/09/19 05:20:09;;;;;;;8.10;1.17;;;8.50;99.90;;;;;;5093167;28;20027;-83
2022/09/19 05:22:35;;;;;;;8.82;0.98;;;8.60;99.90;;;;;;5100001;28;20020;-83
2022/09/19 05:25:04;;;;;;;2.13;0.93;;;8.60;99.90;;;;;;5099889;28;20420;-84
2022/09/19 05:27:36;;;;;;;5.07;1.73;;;8.60;99.90;;;;;;5105147;28;20088;-83
2022/09/19 05:30:02;;;;;;;4.50;1.10;;;8.60;99.90;;;;;;5103216;28;20016;-83
2022/09/19 05:32:28;;;;;;;5.53;1.00;;;8.60;99.90;;;;;;5097491;28;20062;-84
2022/09/19 05:34:56;;;;;;;6.55;1.20;;;8.60;99.90;;;;;;5111083;28;20024;-72
2022/09/19 05:37:22;;;;;;;6.25;1.13;;;8.60;99.90;;;;;;5114363;28;20016;-81
2022/09/19 05:39:48;;;;;;;8.07;1.60;;;8.60;99.90;;;;;;5115686;28;20023;-85
2022/09/19 05:42:14;;;;;;;6.22;1.10;;;8.70;99.90;;;;;;5093817;28;20030;-82
2022/09/19 05:44:39;;;;;;;6.32;1.17;;;8.70;99.90;;;;;;5091418;28;20032;-88
2022/09/19 05:47:05;;;;;;;9.90;1.73;;;8.80;99.90;;;;;;5076200;28;20044;-81
2022/09/19 05:49:32;;;;;;;11.93;1.30;;;8.80;99.90;;;;;;5071342;28;20029;-87
2022/09/19 05:53:51;;;;;;;7.32;1.20;;;8.90;99.90;;;;;;5071678;28;20107;-79
2022/09/19 05:54:43;;;;;;;6.20;1.10;;;9.00;99.90;;;;;;5072436;28;20056;-88
2022/09/19 05:57:09;;;;;;;9.15;1.13;;;9.00;99.90;;;;;;5071380;28;20060;-78
2022/09/19 05:59:35;;;;;;;6.68;1.10;;;9.10;99.90;;;;;;5091390;22;20017;-83
2022/09/19 06:02:01;;;;;;;6.25;1.30;;;9.20;99.90;;;;;;5074371;28;20063;-88
2022/09/19 06:04:27;;;;;;;9.75;1.45;;;9.20;99.90;;;;;;5083142;28;20031;-88
2022/09/19 06:06:52;;;;;;;7.60;1.23;;;9.20;99.90;;;;;;5069357;28;20032;-75
2022/09/19 06:09:18;;;;;;;8.05;0.95;;;9.30;99.90;;;;;;5076186;28;20021;-89
2022/09/19 06:11:44;;;;;;;5.25;0.93;;;9.30;99.90;;;;;;5075477;28;20416;-89
2022/09/19 06:14:15;;;;;;;4.25;1.00;;;9.30;99.90;;;;;;5074525;28;20025;-89
2022/09/19 06:16:41;;;;;;;8.65;1.92;;;9.40;99.90;;;;;;5058906;28;20032;-90
2022/09/19 06:19:08;;;;;;;3.78;1.00;;;9.40;99.90;;;;;;5101736;22;20072;-87
2022/09/19 06:21:33;;;;;;;5.63;1.42;;;9.50;99.90;;;;;;5061386;28;20025;-87
2022/09/19 06:24:01;;;;;;;7.35;1.00;;;9.50;99.90;;;;;;5044948;28;20029;-88
2022/09/19 06:26:27;;;;;;;10.18;1.50;;;9.50;99.90;;;;;;5059179;28;20033;-88
2022/09/19 06:28:53;;;;;;;5.20;1.15;;;9.60;99.90;;;;;;5058895;28;20029;-74
2022/09/19 06:31:19;;;;;;;11.02;1.63;;;9.60;99.90;;;;;;5054970;28;20049;-88
2022/09/19 06:33:44;;;;;;;8.88;1.30;;;9.70;99.90;;;;;;5058879;28;20434;-87
2022/09/19 06:36:10;;;;;;;7.03;1.20;;;9.80;99.90;;;;;;5056270;28;20417;-86
2022/09/19 06:38:40;;;;;;;8.82;1.38;;;9.90;99.90;;;;;;5057548;28;20540;-86
2022/09/19 06:41:08;;;;;;;6.20;1.38;;;9.90;99.90;;;;;;5056107;28;20083;-86
2022/09/19 06:43:33;;;;;;;5.40;1.10;;;9.90;99.90;;;;;;5057471;28;20132;-85
2022/09/19 06:45:59;;;;;;;7.85;1.45;;;10.00;99.90;;;;;;5056913;28;20060;-83
2022/09/19 06:48:24;;;;;;;10.73;1.42;;;10.10;99.90;;;;;;5056650;28;20037;-84
2022/09/19 06:50:50;;;;;;;7.15;1.50;;;10.10;99.90;;;;;;5055783;28;20025;-84
2022/09/19 06:53:17;;;;;;;8.27;1.08;;;10.20;99.90;;;;;;5055117;28;20021;-84
2022/09/19 06:55:43;;;;;;;6.80;1.38;;;10.20;99.90;;;;;;5055805;28;20029;-82
2022/09/19 06:58:10;;;;;;;10.90;2.13;;;10.30;99.90;;;;;;5044936;28;20033;-87
2022/09/19 07:00:38;;;;;;;11.38;2.03;;;10.40;99.90;;;;;;5047409;28;20030;-83
2022/09/19 07:03:08;;;;;;;18.45;2.47;;;10.40;99.90;;;;;;5046958;28;20496;-86
2022/09/19 07:05:34;;;;;;;;;;;10.40;99.90;;;;;;5048532;28;20052;-83
2022/09/19 07:08:00;;;;;;;6.05;1.33;;;10.50;99.90;;;;;;5039089;28;19982;-83
2022/09/19 07:10:26;;;;;;;11.45;1.48;;;10.50;99.90;;;;;;5056722;28;20079;-84
2022/09/19 07:12:59;;;;;;;13.88;1.50;;;10.60;99.90;;;;;;5050824;28;20386;-85
2022/09/19 07:15:24;;;;;;;9.50;1.45;;;10.60;99.90;;;;;;5063436;28;20033;-87
2022/09/19 07:17:54;;;;;;;6.60;1.73;;;10.60;99.90;;;;;;5059356;28;20104;-86
2022/09/19 07:20:20;;;;;;;7.75;1.27;;;10.50;99.90;;;;;;5056272;28;20056;-84
2022/09/19 07:22:47;;;;;;;10.60;1.55;;;10.50;99.90;;;;;;5056861;28;20078;-86
2022/09/19 07:25:13;;;;;;;10.10;1.42;;;10.50;99.90;;;;;;5052884;28;20497;-82
2022/09/19 07:27:41;;;;;;;11.43;1.65;;;10.50;99.90;;;;;;5054555;28;20025;-84
2022/09/19 07:30:07;;;;;;;10.27;1.70;;;10.60;99.90;;;;;;5056525;28;20029;-89
2022/09/19 07:32:33;;;;;;;8.80;1.88;;;10.60;99.90;;;;;;5051465;28;20401;-90
2022/09/19 07:34:58;;;;;;;8.90;2.45;;;10.60;99.90;;;;;;5059983;28;20116;-81
2022/09/19 07:37:24;;;;;;;9.55;1.95;;;10.60;99.90;;;;;;5056869;28;20443;-87
2022/09/19 07:39:50;;;;;;;8.18;1.98;;;10.60;99.90;;;;;;5056697;28;20028;-84
2022/09/19 07:42:15;;;;;;;9.18;1.85;;;10.60;99.90;;;;;;5056260;28;20017;-83
2022/09/19 07:44:41;;;;;;;8.65;1.83;;;10.70;99.90;;;;;;5056127;28;20031;-87
2022/09/19 07:49:51;;;;;;;10.23;1.88;;;10.90;99.90;;;;;;5055193;28;20036;-87
2022/09/19 07:52:16;;;;;;;7.20;1.42;;;10.90;99.90;;;;;;5055147;28;20025;-88
2022/09/19 07:54:42;;;;;;;13.45;1.83;;;11.00;99.90;;;;;;5056840;28;20478;-88
2022/09/19 07:57:07;;;;;;;7.00;1.35;;;11.00;99.90;;;;;;5054793;28;20097;-86
2022/09/19 07:59:33;;;;;;;11.38;1.88;;;11.00;99.90;;;;;;5054331;28;20033;-87
2022/09/19 08:01:59;;;;;;;10.23;1.92;;;11.20;99.90;;;;;;5054249;28;20021;-71
2022/09/19 08:04:24;;;;;;;10.18;2.08;;;11.40;99.90;;;;;;5057216;28;20028;-88
2022/09/19 08:06:50;;;;;;;7.35;1.50;;;11.40;99.90;;;;;;5055542;28;20041;-88
2022/09/19 08:09:15;;;;;;;8.05;1.35;;;11.30;99.90;;;;;;5055278;28;20021;-84
2022/09/19 08:11:41;;;;;;;6.97;1.38;;;11.40;99.90;;;;;;5040247;28;20033;-86
2022/09/19 08:14:06;;;;;;;13.75;1.90;;;11.50;99.90;;;;;;5062507;28;20028;-77
2022/09/19 08:16:32;;;;;;;7.88;1.58;;;11.60;99.90;;;;;;5071999;28;20041;-86
2022/09/19 08:18:58;;;;;;;8.77;1.42;;;11.60;99.90;;;;;;5057721;28;20125;-73
2022/09/19 08:21:24;;;;;;;12.65;1.58;;;11.60;99.90;;;;;;5055251;28;20024;-89
2022/09/19 08:23:50;;;;;;;13.85;1.98;;;11.60;99.90;;;;;;5054718;28;20028;-87
2022/09/19 08:26:16;;;;;;;9.40;1.52;;;11.60;99.90;;;;;;5055954;28;20128;-84
2022/09/19 08:28:42;;;;;;;13.10;2.60;;;11.50;99.90;;;;;;5056240;28;20473;-87
2022/09/19 08:31:09;;;;;;;9.48;2.33;;;11.60;99.90;;;;;;5054934;28;20163;-88
2022/09/19 08:33:35;;;;;;;7.22;1.73;;;11.60;99.90;;;;;;5056145;28;20040;-88
2022/09/19 08:36:01;;;;;;;7.15;1.23;;;11.60;99.90;;;;;;5055041;28;20037;-75
2022/09/19 08:38:26;;;;;;;10.10;1.88;;;11.80;99.90;;;;;;5055624;28;20025;-88
2022/09/19 08:41:10;;;;;;;10.63;1.98;;;11.80;99.90;;;;;;5046944;28;20434;-88
2022/09/19 08:44:10;;;;;;;7.32;1.95;;;11.90;99.90;;;;;;5055646;28;20025;-87
2022/09/19 08:46:55;;;;;;;13.43;1.73;;;12.00;99.90;;;;;;5053119;28;20037;-89
2022/09/19 08:49:33;;;;;;;12.82;1.67;;;12.30;99.90;;;;;;5054570;28;20559;-86
2022/09/19 08:52:07;;;;;;;9.88;1.75;;;12.50;99.90;;;;;;5054397;28;20017;-75
2022/09/19 08:54:40;;;;;;;7.97;1.42;;;12.60;99.90;;;;;;5054029;28;20069;-87
2022/09/19 08:57:16;;;;;;;9.48;2.00;;;12.80;99.90;;;;;;5053397;28;20374;-88
2022/09/19 08:59:44;;;;;;;14.65;2.20;;;12.80;99.90;;;;;;5053213;28;20413;-86
2022/09/19 09:02:26;;;;;;;13.98;2.25;;;12.90;99.90;;;;;;5054808;28;20040;-87
2022/09/19 09:04:54;;;;;;;12.65;2.05;;;12.90;99.90;;;;;;5054066;28;20485;-85
2022/09/19 09:07:20;;;;;;;11.75;1.80;;;12.80;99.90;;;;;;5054575;28;20039;-88
2022/09/19 09:09:54;;;;;;;9.95;1.80;;;12.70;99.90;;;;;;5055221;28;20082;-88
2022/09/19 09:12:35;;;;;;;8.77;1.38;;;12.60;99.90;;;;;;5056296;28;20169;-87
2022/09/19 09:15:30;;;;;;;9.40;1.77;;;12.50;99.90;;;;;;5054590;28;20032;-73
2022/09/19 09:18:17;;;;;;;9.27;1.65;;;12.40;99.90;;;;;;5056815;28;20126;-88
2022/09/19 09:20:51;;;;;;;10.93;2.13;;;12.40;99.90;;;;;;5055011;28;20067;-88
2022/09/19 09:23:26;;;;;;;11.50;1.90;;;12.40;99.90;;;;;;5054789;28;20029;-88
2022/09/19 09:26:00;;;;;;;8.43;1.77;;;12.40;99.90;;;;;;5058768;28;20128;-87
2022/09/19 09:28:51;;;;;;;6.53;1.40;;;12.60;99.90;;;;;;5054709;28;20040;-88
2022/09/19 09:31:25;;;;;;;9.48;1.80;;;12.90;99.90;;;;;;5054516;28;20117;-87
2022/09/19 09:34:07;;;;;;;6.65;1.58;;;12.90;99.90;;;;;;5045511;28;20104;-88
2022/09/19 09:36:56;;;;;;;3.95;1.50;;;13.00;99.90;;;;;;5054814;28;20051;-88
2022/09/19 09:39:31;;;;;;;11.50;1.55;;;13.10;99.90;;;;;;5053869;28;20041;-87
2022/09/19 09:42:01;;;;;;;7.43;1.25;;;13.20;99.90;;;;;;5056732;28;20025;-88
2022/09/19 09:44:44;;;;;;;7.95;2.00;;;13.20;99.90;;;;;;5054272;28;20096;-87
2022/09/19 09:47:36;;;;;;;7.85;2.47;;;13.10;99.90;;;;;;5049699;28;20045;-87
2022/09/19 09:50:31;;;;;;;11.30;1.70;;;13.00;99.90;;;;;;5060939;28;20432;-72
2022/09/19 09:53:24;;;;;;;9.18;1.50;;;12.90;99.90;;;;;;5009308;28;20034;-84
2022/09/19 09:56:17;;;;;;;13.18;1.83;;;12.90;99.90;;;;;;5053151;28;20036;-86
2022/09/19 09:59:07;;;;;;;11.52;2.13;;;12.80;99.90;;;;;;5053557;28;20029;-89
2022/09/19 10:04:51;;;;;;;9.45;1.65;;;12.60;99.90;;;;;;5043636;28;20163;-85
2022/09/19 10:07:23;;;;;;;6.75;1.45;;;12.60;99.90;;;;;;5046971;28;20092;-86
2022/09/19 10:09:59;;;;;;;5.40;1.40;;;12.70;99.90;;;;;;5055765;28;20036;-88
2022/09/19 10:12:32;;;;;;;7.75;1.42;;;12.80;99.90;;;;;;5053664;28;20029;-87
2022/09/19 10:15:03;;;;;;;5.60;1.20;;;13.00;99.90;;;;;;5054953;28;20025;-87
2022/09/19 10:17:33;;;;;;;5.97;1.85;;;13.30;99.90;;;;;;5055828;28;20175;-87
2022/09/19 10:20:03;;;;;;;9.30;1.52;;;13.50;99.90;;;;;;5055332;28;20057;-85
2022/09/19 10:22:29;;;;;;;6.30;1.77;;;13.80;99.90;;;;;;5048811;28;20025;-88
2022/09/19 10:24:59;;;;;;;7.78;1.67;;;13.90;99.90;;;;;;5055471;28;20033;-88
2022/09/19 10:27:31;;;;;;;5.25;1.17;;;14.30;99.90;;;;;;5064408;28;20845;-87
2022/09/19 10:30:18;;;;;;;6.85;1.40;;;14.40;99.90;;;;;;5065192;28;20021;-87
2022/09/19 10:32:44;;;;;;;5.30;1.17;;;14.60;99.90;;;;;;5059669;28;20029;-86
2022/09/19 10:35:26;;;;;;;4.85;0.93;;;14.50;99.90;;;;;;5052104;28;20493;-81
2022/09/19 10:38:05;;;;;;;7.57;1.45;;;14.50;99.90;;;;;;5051034;28;20095;-80
2022/09/19 10:40:32;;;;;;;5.45;1.27;;;14.60;99.90;;;;;;5051994;28;20047;-82
2022/09/19 10:42:59;;;;;;;4.25;1.20;;;14.70;99.90;;;;;;5051855;28;20021;-82
2022/09/19 10:45:35;;;;;;;4.78;1.02;;;14.60;99.90;;;;;;5051496;28;20064;-83
2022/09/19 10:48:11;;;;;;;9.70;2.05;;;14.50;99.90;;;;;;5051850;28;20430;-82
2022/09/19 10:50:45;;;;;;;5.13;1.52;;;14.50;99.90;;;;;;5052300;28;20029;-83
2022/09/19 10:53:19;;;;;;;3.42;1.08;;;14.60;99.90;;;;;;5050376;28;20036;-81
2022/09/19 10:55:45;;;;;;;5.75;1.35;;;14.70;99.90;;;;;;5050941;28;20478;-82
2022/09/19 10:58:22;;;;;;;6.70;1.70;;;14.70;99.90;;;;;;5054807;28;20027;-83
2022/09/19 11:01:02;;;;;;;4.72;1.17;;;14.70;99.90;;;;;;5059434;28;20059;-84
2022/09/19 11:03:32;;;;;;;;;;;14.80;99.90;;;;;;5052938;28;20486;-87
2022/09/19 11:06:13;;;;;;;5.17;1.40;;;15.00;99.90;;;;;;5052678;28;19912;-86
2022/09/19 11:08:47;;;;;;;8.88;1.35;;;15.10;99.90;;;;;;5052909;28;20037;-85
2022/09/19 11:11:37;;;;;;;8.23;1.50;;;15.10;99.90;;;;;;5054063;28;20481;-85
2022/09/19 11:14:35;;;;;;;6.10;0.90;;;15.10;99.90;;;;;;5057076;28;20021;-78
2022/09/19 11:17:22;;;;;;;5.68;1.65;;;15.00;99.90;;;;;;5057151;28;20062;-85
2022/09/19 11:20:05;;;;;;;4.05;1.20;;;14.90;99.90;;;;;;5056685;28;20041;-87
2022/09/19 11:22:50;;;;;;;3.38;0.90;;;14.80;99.90;;;;;;5043747;28;20033;-88
2022/09/19 11:25:39;;;;;;;3.55;0.80;;;14.70;99.90;;;;;;5055641;28;20412;-85
2022/09/19 11:28:13;;;;;;;4.97;1.25;;;14.50;99.90;;;;;;5038861;28;20479;-74
2022/09/19 11:31:35;;;;;;;2.80;1.00;;;14.40;99.90;;;;;;5046957;28;20087;-87
2022/09/19 11:34:27;;;;;;;2.33;0.85;;;14.30;99.90;;;;;;4974545;28;20027;-85
2022/09/19 11:37:22;;;;;;;5.78;1.48;;;14.30;99.90;;;;;;5047133;28;20091;-87
2022/09/19 11:39:51;;;;;;;5.43;1.58;;;14.30;99.90;;;;;;5055870;28;20106;-88
2022/09/19 11:42:38;;;;;;;5.68;1.00;;;14.10;99.90;;;;;;5055104;28;20032;-87
2022/09/19 11:45:17;;;;;;;5.20;1.05;;;14.00;99.90;;;;;;5057408;28;20100;-82
2022/09/19 11:47:59;;;;;;;6.50;1.10;;;14.00;99.90;;;;;;5055758;28;20033;-86
2022/09/19 11:50:25;;;;;;;2.10;1.10;;;14.00;99.90;;;;;;5056392;28;20021;-86
2022/09/19 11:53:17;;;;;;;8.90;1.38;;;14.00;99.90;;;;;;5056923;28;20051;-87
2022/09/19 11:55:56;;;;;;;7.28;1.33;;;14.00;99.90;;;;;;5053410;28;20359;-87
2022/09/19 11:58:35;;;;;;;4.13;1.15;;;14.00;99.90;;;;;;5042448;28;20036;-86
2022/09/19 12:01:27;;;;;;;2.60;0.93;;;14.00;99.90;;;;;;5057257;28;20047;-87
2022/09/19 12:04:02;;;;;;;5.47;1.17;;;14.00;99.90;;;;;;5047593;28;20422;-87
2022/09/19 12:06:36;;;;;;;2.53;1.00;;;14.00;99.90;;;;;;5053985;28;20036;-86
2022/09/19 12:09:33;;;;;;;5.63;1.00;;;14.10;99.90;;;;;;5056534;28;20106;-86
2022/09/19 12:12:13;;;;;;;2.40;0.63;;;14.10;99.90;;;;;;5054668;28;20085;-87
2022/09/19 12:14:55;;;;;;;4.45;1.00;;;14.10;99.90;;;;;;5056223;28;20025;-85
2022/09/19 12:17:29;;;;;;;2.97;1.05;;;14.10;99.90;;;;;;5055252;28;20235;-87
2022/09/19 12:20:14;;;;;;;2.72;0.93;;;14.30;99.90;;;;;;5055547;28;20037;-87
2022/09/19 12:22:48;;;;;;;4.80;1.13;;;14.50;99.90;;;;;;5053875;28;20226;-86
2022/09/19 12:25:19;;;;;;;4.65;0.90;;;14.70;99.90;;;;;;5054429;28;20021;-83
2022/09/19 12:27:59;;;;;;;5.13;1.05;;;14.80;99.90;;;;;;5061306;28;20032;-86
2022/09/19 12:30:33;;;;;;;4.28;1.00;;;15.00;99.90;;;;;;5049906;28;20025;-87
2022/09/19 12:33:18;;;;;;;6.55;0.88;;;15.20;99.90;;;;;;5055115;28;20041;-88
2022/09/19 12:35:50;;;;;;;3.40;1.00;;;;;;;;;;5041070;28;20116;-86
2022/09/19 12:38:29;;;;;;;3.97;0.93;;;16.00;99.90;;;;;;5045230;28;20021;-88
2022/09/19 12:41:09;;;;;;;5.70;1.63;;;16.20;99.90;;;;;;5054838;28;20033;-86
2022/09/19 12:44:23;;;;;;;2.35;0.88;;;16.70;99.90;;;;;;5055119;28;20036;-87
2022/09/19 12:46:57;;;;;;;4.93;1.33;;;17.20;99.90;;;;;;5011717;28;20037;-88
2022/09/19 12:49:50;;;;;;;4.47;0.80;;;17.60;99.90;;;;;;5055473;28;20017;-88
2022/09/19 12:52:25;;;;;;;3.45;1.02;;;18.00;99.90;;;;;;5040872;28;20017;-86
2022/09/19 12:55:15;;;;;;;4.75;0.93;;;18.10;99.90;;;;;;5058663;28;20041;-87
2022/09/19 12:57:59;;;;;;;6.55;1.20;;;17.80;99.90;;;;;;5059119;28;20051;-85
2022/09/19 13:00:24;;;;;;;3.22;1.15;;;17.30;99.90;;;;;;5059509;28;20029;-87
2022/09/19 13:03:36;;;;;;;7.70;1.20;;;17.00;99.90;;;;;;5055840;28;20112;-84
2022/09/19 13:06:11;;;;;;;4.80;1.30;;;16.60;99.90;;;;;;5043615;28;20111;-87
2022/09/19 13:08:47;;;;;;;4.68;1.33;;;16.40;99.90;;;;;;5054506;28;20154;-87
2022/09/19 13:11:34;;;;;;;4.10;1.00;;;16.30;99.90;;;;;;5048410;28;20029;-86
2022/09/19 13:14:03;;;;;;;4.10;0.85;;;16.20;99.90;;;;;;5055832;28;20041;-87
2022/09/19 13:16:33;;;;;;;4.45;1.50;;;16.10;99.90;;;;;;5055857;28;20033;-88
2022/09/19 13:24:38;;;;;;;4.15;0.85;;;15.80;99.90;;;;;;5055425;28;20098;-87
2022/09/19 13:27:04;;;;;;;6.20;1.85;;;15.70;99.90;;;;;;5052870;28;20039;-86
2022/09/19 13:29:30;;;;;;;3.60;0.95;;;15.50;99.90;;;;;;5053916;28;20017;-86
2022/09/19 13:31:56;;;;;;;2.90;1.00;;;15.50;99.90;;;;;;5056842;28;20070;-89
2022/09/19 13:34:33;;;;;;;5.53;0.98;;;15.40;99.90;;;;;;5055949;28;20148;-85
2022/09/19 13:37:22;;;;;;;3.60;1.10;;;15.30;99.90;;;;;;5072286;28;20041;-87
2022/09/19 13:40:17;;;;;;;3.30;0.70;;;15.20;99.90;;;;;;5071497;28;20009;-86